• Join FlightAware (Why Join?)
  • Login
  • US Flag 
06:43PM EDT


 

Airport Tracker/Info


-or-


 

Live Flight TrackerFlight Track Log ✈ UPS1191 ✈ 22-May-2014 ✈ KPHL - KRFD

Flight Track Log - Related Links

Times and Time Zones

All times are in EDT time to prevent confusion due to time zone crossing. See the UPS1191 flight status page for this flight to view local times or setup timezone preferences in your user account.

Time Position Orientation Groundspeed Altitude Reporting Facility
EDT Latitude Longitude Course Direction KTS MPH feet Rate Location/Type
10:25PM 39.8619 -75.2506 North  Level FlightAware ADS-B (KPHL)
10:48PM 39.8633 -75.2630 256° West 159 183 600 60 Climbing FlightAware ADS-B (KPHL)
10:49PM 39.8509 -75.3031 246° West 172 198 1,900 1,560 Climbing FlightAware ADS-B (KWWD)
10:49PM 39.8443 -75.3196 242° Southwest 204 235 2,300 1,680 Climbing FlightAware ADS-B (KPHL)
10:49PM 39.8402 -75.3300 245° Southwest 203 234 2,600 3,540 Climbing FlightAware ADS-B (KWWD)
10:49PM 39.8318 -75.3513 243° Southwest 211 243 3,600 2,700 Climbing FlightAware ADS-B (KOQN)
10:50PM 39.8244 -75.3705 248° West 225 259 4,200 2,100 Climbing FlightAware ADS-B (KWWD)
10:50PM 39.8207 -75.3870 265° West 248 285 4,600 1,620 Climbing FlightAware ADS-B (KOQN)
10:50PM 39.8207 -75.3963 275° West 252 290 4,700 1,800 Climbing FlightAware ADS-B (KPHL)
10:50PM 39.8241 -75.4107 299° West 258 297 5,200 3,120 Climbing FlightAware ADS-B (KWWD)
10:50PM 39.8305 -75.4222 315° West 251 289 5,700 3,180 Climbing FlightAware ADS-B (KWWD)
10:50PM 39.8335 -75.4256 325° Northwest 256 295 6,000 4,800 Climbing FlightAware ADS-B
10:50PM 39.8400 -75.4308 339° North 255 293 6,500 3,900 Climbing FlightAware ADS-B
10:51PM 39.8575 -75.4383 346° North 252 290 7,300 2,880 Climbing FlightAware ADS-B (KPHL)
10:51PM 39.8764 -75.4445 345° North 253 291 8,100 3,300 Climbing FlightAware ADS-B (KWWD)
10:51PM 39.9040 -75.4544 346° North 266 306 9,300 2,700 Climbing FlightAware ADS-B (KOQN)
10:52PM 39.9098 -75.4563 347° North 275 316 10,400 1,980 Climbing FlightAware ADS-B
10:52PM 39.9713 -75.4758 346° North 301 346 11,200 1,740 Climbing FlightAware ADS-B
10:53PM 40.0136 -75.4906 344° North 305 351 12,000 1,200 Climbing FlightAware ADS-B (KWWD)
10:53PM 40.0552 -75.5055 345° North 304 350 12,400 960 Climbing FlightAware ADS-B (KWWD)
10:53PM 40.0650 -75.5089 345° North 315 362 12,600 1,020 Climbing FlightAware ADS-B (KWWD)
10:54PM 40.1135 -75.5250 345° North 322 371 13,100 420 Climbing FlightAware ADS-B (KPHL)
10:54PM 40.1582 -75.5395 347° North 323 372 13,100 300 Level FlightAware ADS-B (KPHL)
10:55PM 40.2177 -75.5609 336° Northwest 314 361 13,500 600 Climbing FlightAware ADS-B (KWWD)
10:55PM 40.2259 -75.5675 324° Northwest 319 367 13,600 1,680 Climbing FlightAware ADS-B (KWWD)
10:56PM 40.2412 -75.5875 311° West 317 365 14,100 2,280 Climbing FlightAware ADS-B (KWWD)
10:56PM 40.2562 -75.6135 306° West 327 376 14,800 1,320 Climbing FlightAware ADS-B (KPHL)
10:56PM 40.2912 -75.6648 311° West 369 425 15,200 1,080 Climbing FlightAware ADS-B (KWWD)
10:57PM 40.3278 -75.7201 310° West 383 441 16,000 1,740 Climbing FlightAware ADS-B (KWWD)
10:57PM 40.3628 -75.7738 311° West 395 455 17,000 1,080 Climbing FlightAware ADS-B (KWWD)
10:58PM 40.4005 -75.8300 311° West 398 458 17,100 60 Climbing FlightAware ADS-B (KWWD)
10:58PM 40.4325 -75.8856 300° West 393 452 17,100  Level FlightAware ADS-B (KWWD)
10:59PM 40.4412 -75.9106 289° West 393 452 17,100  Level FlightAware ADS-B (KWWD)
10:59PM 40.4553 -75.9855 283° West 394 453 17,100 480 Level FlightAware ADS-B (KWWD)
10:59PM 40.4644 -76.0413 282° West 406 467 17,600 1,800 Climbing FlightAware ADS-B (KWWD)
11:00PM 40.4795 -76.1348 282° West 408 470 18,900 2,100 Climbing FlightAware ADS-B (KWWD)
11:01PM 40.4997 -76.2617 280° West 409 471 20,800 1,980 Climbing FlightAware ADS-B (KWWD)
11:02PM 40.5101 -76.3363 279° West 413 475 21,700 2,040 Climbing FlightAware ADS-B (KWWD)
11:02PM 40.5231 -76.4331 279° West 412 474 23,200 2,040 Climbing FlightAware ADS-B (KWWD)
11:03PM 40.5462 -76.6005 279° West 413 475 25,400 1,860 Climbing FlightAware ADS-B (KWWD)
11:04PM 40.5597 -76.6987 279° West 414 476 26,700 1,980 Climbing FlightAware ADS-B (KWWD)
11:04PM 40.5653 -76.7389 279° West 414 476 27,300 2,040 Climbing FlightAware ADS-B (KWWD)
11:05PM 40.5723 -76.7897 279° West 414 476 27,800 2,580 Climbing FlightAware ADS-B (KWWD)
11:05PM 40.5898 -76.9172 280° West 397 457 30,200 2,640 Climbing FlightAware ADS-B (KCXY)
11:06PM 40.6019 -77.0065 280° West 395 455 31,500 1,980 Climbing FlightAware ADS-B (KCXY)
11:07PM 40.6148 -77.1019 280° West 391 450 32,800 1,860 Climbing FlightAware ADS-B (KCXY)
11:07PM 40.6258 -77.1837 280° West 388 447 33,900 720 Climbing FlightAware ADS-B (KCXY)
11:08PM 40.6431 -77.3149 279° West 414 476 34,000  Climbing FlightAware ADS-B (KWWD)
11:09PM 40.6557 -77.4117 280° West 383 441 34,000  Level FlightAware ADS-B (KWWD)
11:10PM 40.6712 -77.5306 280° West 389 448 34,000  Level FlightAware ADS-B (KWWD)
11:11PM 40.6926 -77.6960 280° West 390 449 34,000  Level FlightAware ADS-B (KCXY)
11:11PM 40.6933 -77.7011 280° West 388 447 34,000  Level FlightAware ADS-B (CYYZ)
11:12PM 40.7077 -77.8127 280° West 388 447 34,000  Level FlightAware ADS-B (CYYZ)
11:12PM 40.7157 -77.8756 280° West 388 447 34,000  Level FlightAware ADS-B (CYYZ)
11:13PM 40.7247 -77.9461 280° West 389 448 34,000  Level FlightAware ADS-B (KWWD)
11:13PM 40.7346 -78.0251 280° West 389 448 34,000  Level FlightAware ADS-B (CYYZ)
11:14PM 40.7432 -78.0936 280° West 388 447 34,000  Level FlightAware ADS-B (CYYZ)
11:14PM 40.7486 -78.1359 279° West 388 447 34,000  Level FlightAware ADS-B (KWWD)
11:14PM 40.7515 -78.1592 280° West 387 445 34,000  Level FlightAware ADS-B (CYYZ)
11:15PM 40.7605 -78.2313 280° West 388 447 34,000  Level FlightAware ADS-B (CYYZ)
11:15PM 40.7696 -78.3042 280° West 388 447 34,000  Level FlightAware ADS-B (CYYZ)
11:16PM 40.7772 -78.3665 278° West 389 448 34,000  Level FlightAware ADS-B (KWWD)
11:16PM 40.7783 -78.3758 280° West 389 448 34,000  Level FlightAware ADS-B (CYYZ)
11:16PM 40.7865 -78.4438 279° West 390 449 34,000  Level FlightAware ADS-B (CYYZ)
11:17PM 40.7950 -78.5156 279° West 390 449 34,000  Level FlightAware ADS-B (CYYZ)
11:17PM 40.8034 -78.5860 279° West 389 448 34,000  Level FlightAware ADS-B (CYYZ)
11:18PM 40.8115 -78.6541 279° West 389 448 34,000  Level FlightAware ADS-B (CYYZ)
11:18PM 40.8202 -78.7277 279° West 389 448 34,000  Level FlightAware ADS-B (CYYZ)
11:19PM 40.8279 -78.7933 279° West 389 448 34,000  Level FlightAware ADS-B (CYYZ)
11:19PM 40.8368 -78.8683 279° West 389 448 34,000  Level FlightAware ADS-B (CYYZ)
11:20PM 40.8389 -78.8866 278° West 389 448 34,000  Level FlightAware ADS-B (KWWD)
11:20PM 40.8448 -78.9373 279° West 389 448 34,000  Level FlightAware ADS-B (CYYZ)
11:20PM 40.8533 -79.0096 279° West 389 448 34,000  Level FlightAware ADS-B (CYYZ)
11:21PM 40.8614 -79.0795 279° West 389 448 34,000  Level FlightAware ADS-B (CYYZ)
11:21PM 40.8694 -79.1495 279° West 390 449 34,000  Level FlightAware ADS-B (CYYZ)
11:22PM 40.8772 -79.2182 279° West 390 449 34,000  Level FlightAware ADS-B (CYYZ)
11:22PM 40.8851 -79.2893 279° West 390 449 34,000  Level FlightAware ADS-B (CYYZ)
11:23PM 40.8932 -79.3622 279° West 390 449 34,000  Level FlightAware ADS-B (CYYZ)
11:23PM 40.9011 -79.4320 279° West 391 450 34,000  Level FlightAware ADS-B (CYYZ)
11:24PM 40.9091 -79.5032 279° West 391 450 34,000  Level FlightAware ADS-B (CYYZ)
11:24PM 40.9120 -79.5295 278° West 391 450 34,000  Level FlightAware ADS-B (KAGC)
11:24PM 40.9168 -79.5729 279° West 391 450 34,000  Level FlightAware ADS-B (CYYZ)
11:25PM 40.9209 -79.6102 278° West 391 450 34,000  Level FlightAware ADS-B (EPWA / WAW)
11:25PM 40.9247 -79.6447 279° West 391 450 34,000  Level FlightAware ADS-B (CYYZ)
11:25PM 40.9297 -79.6895 278° West 391 450 34,000  Level FlightAware ADS-B (KAGC)
11:25PM 40.9316 -79.7070 279° West 391 450 34,000  Level FlightAware ADS-B (CYYZ)
11:26PM 40.9375 -79.7604 278° West 392 451 34,000  Level FlightAware ADS-B (EPWA / WAW)
11:26PM 40.9401 -79.7845 279° West 392 451 34,000  Level FlightAware ADS-B (CYYZ)
11:26PM 40.9452 -79.8304 278° West 392 451 34,000  Level FlightAware ADS-B (KAGC)
11:26PM 40.9477 -79.8532 279° West 392 451 34,000  Level FlightAware ADS-B (CYYZ)
11:27PM 40.9531 -79.9024 278° West 392 451 34,000  Level FlightAware ADS-B (KAGC)
11:27PM 40.9549 -79.9185 279° West 391 450 34,000  Level FlightAware ADS-B (CYYZ)
11:27PM 40.9609 -79.9739 278° West 392 451 34,000  Level FlightAware ADS-B (KAGC)
11:27PM 40.9634 -79.9966 279° West 391 450 34,000  Level FlightAware ADS-B (CYYZ)
11:28PM 40.9685 -80.0441 278° West 392 451 34,000  Level FlightAware ADS-B (KAGC)
11:28PM 40.9713 -80.0711 278° West 391 450 34,000  Level FlightAware ADS-B (CYYZ)
11:28PM 40.9788 -80.1418 278° West 392 451 34,000  Level FlightAware ADS-B (CYYZ)
11:28PM 40.9796 -80.1503 278° West 393 452 34,000  Level FlightAware ADS-B (KAGC)
11:29PM 40.9863 -80.2134 278° West 392 451 34,000  Level FlightAware ADS-B (CYYZ)
11:29PM 40.9907 -80.2561 278° West 393 452 34,000  Level FlightAware ADS-B (KAGC)
11:29PM 40.9930 -80.2775 278° West 392 451 34,000  Level FlightAware ADS-B (CYYZ)
11:30PM 40.9981 -80.3268 278° West 393 452 34,000  Level FlightAware ADS-B (KAGC)
11:30PM 41.0006 -80.3506 278° West 392 451 34,000  Level FlightAware ADS-B (CYYZ)
11:30PM 41.0055 -80.3985 278° West 393 452 34,000  Level FlightAware ADS-B (KAGC)
11:30PM 41.0081 -80.4242 278° West 392 451 34,000  Level FlightAware ADS-B (CYYZ)
11:31PM 41.0154 -80.4940 278° West 392 451 34,000  Level FlightAware ADS-B (CYYZ)
11:31PM 41.0230 -80.5694 278° West 392 451 34,000  Level FlightAware ADS-B (CYYZ)
11:32PM 41.0284 -80.6226 278° West 392 451 34,000  Level FlightAware ADS-B (CYYZ)
11:32PM 41.0363 -80.7014 278° West 392 451 34,000  Level FlightAware ADS-B (CYYZ)
11:32PM 41.0377 -80.7156 277° West 392 451 34,000  Level FlightAware ADS-B (EPWA / WAW)
11:33PM 41.0385 -80.7246 278° West 392 451 34,000  Level FlightAware ADS-B (CYYZ)
11:34PM 41.0572 -80.9144 278° West 391 450 34,000  Level FlightAware ADS-B (CYYZ)
11:35PM 41.0698 -81.0439 277° West 393 452 34,000  Level FlightAware ADS-B (EPWA / WAW)
11:36PM 41.0900 -81.2534 277° West 393 452 34,000  Level FlightAware ADS-B (EPWA / WAW)
11:38PM 41.1122 -81.4907 277° West 394 453 34,000  Level FlightAware ADS-B (EPWA / WAW)
11:39PM 41.1228 -81.6061 277° West 393 452 34,000  Level Cleveland Center
11:40PM 41.1372 -81.7633 277° West 393 452 34,000  Level Cleveland Center
11:41PM 41.1511 -81.9061 277° West 393 452 34,000  Level Cleveland Center
11:42PM 41.1647 -82.0503 277° West 393 452 34,000  Level Cleveland Center
11:43PM 41.1767 -82.1911 276° West 393 452 34,000  Level Cleveland Center
11:44PM 41.1894 -82.3367 277° West 392 451 34,000  Level Cleveland Center
11:45PM 41.2014 -82.4822 276° West 393 452 34,000  Level Cleveland Center
11:46PM 41.2139 -82.6278 277° West 393 452 34,000  Level Cleveland Center
11:47PM 41.2289 -82.7719 278° West 392 451 34,000  Level Cleveland Center
11:48PM 41.2547 -82.9133 284° West 391 450 34,000  Level Cleveland Center
11:49PM 41.2831 -83.0544 285° West 391 450 34,000  Level Cleveland Center
11:50PM 41.3069 -83.1844 284° West 391 450 34,000  Level Cleveland Center
11:51PM 41.3369 -83.3542 283° West 391 450 34,000  Level Cleveland Center
11:52PM 41.3619 -83.4953 283° West 391 450 34,000  Level Cleveland Center
11:58PM 41.5088 -84.3350 283° West 393 452 34,000  Level FlightAware ADS-B (KMDW)
11:59PM 41.5304 -84.4628 283° West 393 452 34,000  Level FlightAware ADS-B (KMDW)
12:01AM 41.5782 -84.7471 283° West 393 452 34,000  Level FlightAware ADS-B (KMDW)
12:01AM 41.5906 -84.8216 283° West 393 452 34,000  Level FlightAware ADS-B (KMDW)
12:02AM 41.6023 -84.8932 282° West 393 452 34,000  Level FlightAware ADS-B (KMDW)
12:02AM 41.6145 -84.9691 282° West 393 452 34,000  Level FlightAware ADS-B (KMDW)
12:03AM 41.6260 -85.0402 282° West 393 452 34,000  Level FlightAware ADS-B (KMDW)
12:03AM 41.6374 -85.1113 282° West 393 452 34,000  Level FlightAware ADS-B (KMDW)
12:04AM 41.6476 -85.1748 282° West 393 452 34,000  Level FlightAware ADS-B (KMDW)
12:04AM 41.6603 -85.2532 282° West 393 452 34,000  Level FlightAware ADS-B (KMDW)
12:05AM 41.6717 -85.3239 282° West 394 453 34,000  Level FlightAware ADS-B (KMDW)
12:05AM 41.6831 -85.3953 282° West 394 453 34,000  Level FlightAware ADS-B (KMDW)
12:06AM 41.6957 -85.4738 282° West 394 453 34,000  Level FlightAware ADS-B (KMDW)
12:06AM 41.7061 -85.5394 282° West 394 453 34,000  Level FlightAware ADS-B (KMDW)
12:07AM 41.7224 -85.6426 282° West 392 451 34,000  Level FlightAware ADS-B (KPWK)
12:08AM 41.7375 -85.7381 282° West 393 452 34,000  Level FlightAware ADS-B (KMDW)
12:08AM 41.7489 -85.8099 282° West 394 453 34,000  Level FlightAware ADS-B (KMDW)
12:09AM 41.7600 -85.8794 282° West 393 452 34,000  Level FlightAware ADS-B (KMDW)
12:10AM 41.7786 -86.0001 282° West 394 453 34,000  Level FlightAware ADS-B (KMDW)
12:10AM 41.7812 -86.0173 282° West 395 455 34,000  Level FlightAware ADS-B (KPWK)
12:10AM 41.7931 -86.0953 281° West 395 455 34,000  Level FlightAware ADS-B (KMDW)
12:11AM 41.8048 -86.1729 281° West 396 456 34,000  Level FlightAware ADS-B (KMDW)
12:11AM 41.8153 -86.2420 281° West 396 456 34,000  Level FlightAware ADS-B (KMDW)
12:12AM 41.8277 -86.3236 281° West 396 456 34,000  Level FlightAware ADS-B (KMDW)
12:12AM 41.8387 -86.3965 281° West 396 456 34,000  Level FlightAware ADS-B (KMDW)
12:13AM 41.8498 -86.4700 281° West 396 456 34,000  Level FlightAware ADS-B (KMDW)
12:13AM 41.8607 -86.5435 281° West 396 456 34,000  Level FlightAware ADS-B (KMDW)
12:14AM 41.8746 -86.6354 281° West 395 455 34,000  Level FlightAware ADS-B (KMDW)
12:15AM 41.8858 -86.7106 281° West 394 453 34,000  Level FlightAware ADS-B (KMDW)
12:15AM 41.8963 -86.7800 281° West 395 455 34,000  Level FlightAware ADS-B (KMDW)
12:16AM 41.9093 -86.8672 281° West 395 455 34,000  Level FlightAware ADS-B (KPWK)
12:17AM 41.9285 -86.9982 281° West 395 455 34,000  Level FlightAware ADS-B (KMDW)
12:17AM 41.9387 -87.0703 281° West 395 455 34,000 -120 Level FlightAware ADS-B (KMDW)
12:18AM 41.9479 -87.1363 281° West 395 455 33,900 -1,380 Descending FlightAware ADS-B (KPWK)
12:18AM 41.9585 -87.2125 281° West 387 445 32,700 -2,820 Descending FlightAware ADS-B (KMDW)
12:19AM 41.9688 -87.2843 281° West 393 452 31,000 -3,360 Descending FlightAware ADS-B (KMDW)
12:19AM 41.9827 -87.3807 281° West 396 456 28,800 -2,940 Descending FlightAware ADS-B (KMDW)
12:20AM 41.9954 -87.4710 281° West 391 450 27,100 -2,580 Descending FlightAware ADS-B (KMDW)
12:21AM 42.0080 -87.5607 281° West 382 440 25,400 -2,820 Descending FlightAware ADS-B (KMDW)
12:21AM 42.0131 -87.5974 281° West 382 440 24,600 -1,680 Descending FlightAware ADS-B (KPWK)
12:21AM 42.0251 -87.6839 280° West 370 426 24,000 -840 Descending FlightAware ADS-B (KMDW)
12:22AM 42.0283 -87.7074 281° West 428 493 24,000 -240 Level FlightAware ADS-B (KMDW)
12:22AM 42.0404 -87.7951 280° West 361 415 23,800 -1,140 Descending FlightAware ADS-B (KMDW)
12:23AM 42.0491 -87.8581 280° West 354 407 22,700 -2,280 Descending FlightAware ADS-B (KMDW)
12:24AM 42.0643 -87.9706 280° West 350 403 20,800 -2,340 Descending FlightAware ADS-B (KMDW)
12:24AM 42.0763 -88.0616 280° West 344 396 19,200 -2,280 Descending FlightAware ADS-B (KMDW)
12:25AM 42.0874 -88.1453 280° West 340 391 17,700 -2,220 Descending FlightAware ADS-B (KMDW)
12:25AM 42.0966 -88.2143 280° West 336 387 16,500 -1,740 Descending FlightAware ADS-B (KMDW)
12:26AM 42.1049 -88.2761 280° West 331 381 15,900 -720 Descending FlightAware ADS-B (KMDW)
12:27AM 42.1135 -88.3413 280° West 330 380 15,800 -120 Descending FlightAware ADS-B (KMDW)
12:27AM 42.1245 -88.4235 280° West 331 381 15,800 -780 Level FlightAware ADS-B (KMDW)
12:28AM 42.1324 -88.4827 280° West 324 373 14,900 -2,040 Descending FlightAware ADS-B (KMDW)
12:28AM 42.1404 -88.5439 280° West 323 372 13,800 -2,220 Descending FlightAware ADS-B (KMDW)
12:29AM 42.1477 -88.5998 280° West 322 371 12,700 -2,280 Descending FlightAware ADS-B (KMDW)
12:29AM 42.1576 -88.6770 280° West 320 368 11,200 -1,920 Descending FlightAware ADS-B (KMDW)
12:30AM 42.1654 -88.7383 280° West 307 353 10,500 -1,920 Descending FlightAware ADS-B (KMDW)
12:30AM 42.1703 -88.7767 280° West 296 341 9,600 -1,500 Descending FlightAware ADS-B (KMDW)
12:31AM 42.1746 -88.8113 280° West 266 306 9,500 -1,080 Descending FlightAware ADS-B (KMDW)
12:31AM 42.1784 -88.8419 280° West 258 297 8,900 -2,280 Descending FlightAware ADS-B (KMDW)
12:31AM 42.1827 -88.8749 278° West 260 299 8,000 -2,640 Descending FlightAware ADS-B (KMDW)
12:31AM 42.1826 -88.8908 264° West 262 302 7,600 -2,580 Descending FlightAware ADS-B (KMDW)
12:32AM 42.1794 -88.9055 245° Southwest 266 306 7,200 -4,140 Descending FlightAware ADS-B (KMDW)
12:32AM 42.1740 -88.9186 233° Southwest 270 311 6,300 -2,940 Descending FlightAware ADS-B (KPWK)
12:32AM 42.1577 -88.9473 228° Southwest 262 302 5,700 -2,940 Descending FlightAware ADS-B (KMDW)
12:32AM 42.1408 -88.9700 224° Southwest 262 302 4,300 -4,200 Descending FlightAware ADS-B (KMDW)
12:33AM 42.1395 -88.9716 223° Southwest 263 303 3,200 -2,100 Descending FlightAware ADS-B (KMDW)
12:33AM 42.0983 -89.0181 223° Southwest 268 308 2,300 -720 Descending Chicago Center
12:34AM 42.0689 -89.0725 234° Southwest 214 246 2,000 -180 Descending Chicago Center
12:35AM 42.1081 -89.0989 333° Northwest 170 196 2,000 -300 Level Chicago Center
12:36AM 42.1531 -89.0978 North 163 188 1,400 -420 Descending Chicago Center
12:37AM 42.1964 -89.0917 North 162 186 1,200 -240 Descending Chicago Center